Main page
METAR-TAF:

Airports :

Milan, Italy

Malpensa Airport

latitude: 45-37N, longitude: 008-44E, elevation: 234 m

Current weather observation

The report was made 31 minutes ago, at 18:20 UTC
Wind 5 kt from the North/Northeast
Temperature 17°C
Humidity 94%
Pressure 1014 hPa
Visibility 10 km or more
Broken clouds at a height of 4000 ft

METAR: LIMC 011820Z 03005KT 9999 BKN040 17/16 Q1014 NOSIG

Time: 20:51 (18:51 UTC)

Forecast

The report was made 1 hour and 51 minutes ago, at 17:00 UTC
Forecast valid from 01 at 18 UTC to 02 at 24 UTC
Wind 5 kt from variable directions
Visibility: 7000 m
Scattered clouds at a height of 2500 ft
Broken clouds at a height of 6000 ft
Probability 40% :
Temporary
from 01 at 18 UTC to 02 at 02 UTC
Visibility: 4000 m
thunderstorm, rain

TAF: LIMC 011700Z 0118/0224 VRB05KT 7000 SCT025 BKN060 PROB40 TEMPO 0118/0202 4000 TSRA

METAR-TAF

Weather observations and forecasts of more than 4000 airports (METAR and TAF reports).

The available stations are represented by yellow and red dots on the map.

Hover mouse over dot to see the name of the station.

Then click to see weather observations and forecasts.

To change the map : click on the green buttons with a black cross to zoom in, on the green button with a dash to zoom out, or on the green arrows for adjacent maps.


METAR-TAF: